Griffithtown, Arkansas
Current Conditions -  °F | °C
As of 3:56 AM on Monday 22 Dec 2014 (Local Time) from KADF Reporting Station
Overcast Overcast  
Wind Chill: 47°   Ceiling: 800
Heat Index: 47°   Visibility: 9mi
Dew Point: 47°   Wind: 3mph
Humidity: 100%   Direction: 140°SE
Pressure: 29.77"   Gusts: NA
Location:  34.0941°N, 93.0475°W
Report Text: KADF 220956Z AUTO 14003KT 9SM OVC008 08/08 A2977 RMK AO2 T00830083 SLP096
Loading
Personal Weather Stations






























Interactive Weather Map New forecast layout! Learn more

10-Day Weather Forecast

Advertisements
Track Severe Weather on mobile